createdAt,value
2023-03-30T00:00:55.870Z,8.29
2023-03-30T00:03:23.430Z,8.32
2023-03-30T00:05:51.878Z,8.42
2023-03-30T00:08:19.287Z,8.37
2023-03-30T00:10:46.565Z,8.54
2023-03-30T00:13:14.162Z,8.49
2023-03-30T00:15:41.346Z,8.56
2023-03-30T00:18:09.457Z,8.46
2023-03-30T00:20:37.904Z,8.52
2023-03-30T00:23:05.081Z,8.51
2023-03-30T00:25:32.473Z,8.48
2023-03-30T00:27:59.412Z,8.39
2023-03-30T00:30:26.698Z,8.42
2023-03-30T00:32:53.962Z,8.37
2023-03-30T00:35:21.143Z,8.28
2023-03-30T00:37:49.883Z,8.24
2023-03-30T00:40:20.705Z,8.50
2023-03-30T00:42:49.058Z,8.55
2023-03-30T00:45:25.358Z,8.55
2023-03-30T00:48:15.856Z,8.56
2023-03-30T00:50:46.884Z,8.45
2023-03-30T00:53:18.115Z,8.37
2023-03-30T00:55:47.414Z,8.27
2023-03-30T00:58:17.053Z,8.34
2023-03-30T01:00:47.360Z,8.30
2023-03-30T01:03:22.896Z,8.36
2023-03-30T01:05:52.207Z,8.39
2023-03-30T01:08:20.584Z,8.32
2023-03-30T01:10:47.583Z,8.33
2023-03-30T01:13:15.425Z,8.29
2023-03-30T01:15:58.950Z,8.34
2023-03-30T01:18:42.841Z,8.32
2023-03-30T01:21:48.581Z,8.36
2023-03-30T01:24:27.860Z,8.34
2023-03-30T01:27:04.375Z,8.30
2023-03-30T01:30:09.293Z,8.36
2023-03-30T01:33:11.663Z,8.37
2023-03-30T01:35:51.013Z,8.35
2023-03-30T01:38:59.866Z,8.47
2023-03-30T01:41:45.480Z,8.45
2023-03-30T01:44:19.599Z,8.43
2023-03-30T01:47:24.542Z,8.35
2023-03-30T01:50:03.552Z,8.31
2023-03-30T01:52:50.538Z,8.38
2023-03-30T01:55:35.755Z,8.38
2023-03-30T01:58:27.203Z,8.47
2023-03-30T02:00:57.328Z,7.46
2023-03-30T02:03:32.724Z,8.53
2023-03-30T02:06:05.540Z,8.59
2023-03-30T02:08:35.705Z,8.64
2023-03-30T02:11:04.031Z,8.67
2023-03-30T02:13:33.034Z,8.67
2023-03-30T02:16:07.376Z,8.62
2023-03-30T02:18:35.509Z,8.36
2023-03-30T02:21:03.763Z,8.53
2023-03-30T02:23:35.541Z,8.63
2023-03-30T02:26:02.804Z,8.65
2023-03-30T02:28:29.835Z,8.60
2023-03-30T02:30:57.035Z,8.67
2023-03-30T02:33:39.365Z,8.62
2023-03-30T02:36:40.976Z,8.63
2023-03-30T02:39:35.801Z,8.54
2023-03-30T02:42:34.205Z,8.53
2023-03-30T02:45:24.925Z,8.50
2023-03-30T02:48:22.221Z,8.50
2023-03-30T02:51:12.546Z,8.59
2023-03-30T02:54:48.678Z,8.56
2023-03-30T02:57:25.569Z,8.52
2023-03-30T03:00:00.432Z,8.47
2023-03-30T03:02:51.716Z,8.33
2023-03-30T03:05:27.126Z,8.38
2023-03-30T03:08:06.378Z,8.36
2023-03-30T03:10:36.466Z,8.31
2023-03-30T03:13:04.048Z,8.26
2023-03-30T03:15:32.063Z,8.27
2023-03-30T03:18:13.034Z,8.27
2023-03-30T03:20:41.200Z,8.26
2023-03-30T03:23:09.656Z,8.20
2023-03-30T03:25:45.511Z,8.19
2023-03-30T03:28:14.866Z,8.16
2023-03-30T03:30:45.968Z,8.09
2023-03-30T03:33:22.804Z,8.06
2023-03-30T03:36:00.604Z,8.10
2023-03-30T03:38:30.081Z,8.06
2023-03-30T03:40:59.718Z,7.98
2023-03-30T03:43:28.092Z,8.10
2023-03-30T03:45:55.448Z,8.09
2023-03-30T03:48:24.725Z,8.01
2023-03-30T03:50:57.208Z,8.04
2023-03-30T03:53:27.722Z,8.05
2023-03-30T03:55:59.923Z,8.05
2023-03-30T03:58:27.806Z,8.04
2023-03-30T04:01:01.932Z,8.09
2023-03-30T04:03:29.495Z,8.08
2023-03-30T04:06:01.217Z,8.09
2023-03-30T04:08:29.122Z,8.04
2023-03-30T04:11:12.234Z,8.02
2023-03-30T04:13:59.508Z,7.89
2023-03-30T04:16:58.085Z,7.97
2023-03-30T04:19:43.413Z,7.95
2023-03-30T04:22:26.093Z,7.95
2023-03-30T04:25:07.166Z,7.94
2023-03-30T04:27:53.655Z,7.83
2023-03-30T04:30:33.189Z,7.81
2023-03-30T04:33:19.472Z,7.88
2023-03-30T04:36:05.810Z,7.81
2023-03-30T04:38:59.833Z,7.85
2023-03-30T04:41:51.318Z,7.87
2023-03-30T04:44:29.011Z,7.86
2023-03-30T04:47:08.622Z,7.82
2023-03-30T04:49:54.647Z,7.85
2023-03-30T04:52:40.488Z,7.76
2023-03-30T04:55:08.839Z,7.71
2023-03-30T04:57:54.216Z,7.53
2023-03-30T05:00:54.080Z,7.71
2023-03-30T05:03:24.082Z,7.66
2023-03-30T05:06:14.868Z,7.77
2023-03-30T05:08:42.051Z,7.72
2023-03-30T05:11:27.844Z,7.72
2023-03-30T05:14:15.505Z,7.73
2023-03-30T05:16:56.157Z,7.68
2023-03-30T05:19:46.814Z,7.60
2023-03-30T05:22:27.576Z,7.73
2023-03-30T05:25:12.338Z,7.50
2023-03-30T05:27:47.504Z,7.79
2023-03-30T05:30:24.750Z,7.79
2023-03-30T05:33:15.005Z,7.88
2023-03-30T05:35:57.433Z,7.79
2023-03-30T05:38:42.581Z,7.96
2023-03-30T05:41:32.561Z,7.95
2023-03-30T05:44:12.958Z,8.00
2023-03-30T05:47:08.904Z,7.86
2023-03-30T05:49:58.983Z,7.88
2023-03-30T05:52:49.511Z,8.09
2023-03-30T05:55:23.909Z,8.27
2023-03-30T05:58:04.106Z,8.28
2023-03-30T06:00:52.686Z,8.31
2023-03-30T06:03:30.643Z,8.34
2023-03-30T06:05:58.716Z,8.38
2023-03-30T06:08:27.186Z,8.40
2023-03-30T06:10:58.348Z,8.36
2023-03-30T06:13:27.987Z,8.35
2023-03-30T06:15:56.061Z,8.36
2023-03-30T06:18:26.566Z,8.21
2023-03-30T06:21:06.527Z,8.36
2023-03-30T06:23:41.390Z,8.29
2023-03-30T06:26:13.688Z,8.41
2023-03-30T06:28:41.388Z,8.44
2023-03-30T06:31:12.309Z,8.42
2023-03-30T06:33:42.072Z,8.49
2023-03-30T06:36:13.583Z,8.54
2023-03-30T06:38:43.774Z,8.56
2023-03-30T06:41:12.744Z,8.46
2023-03-30T06:43:43.363Z,8.71
2023-03-30T06:46:16.005Z,8.80
2023-03-30T06:48:48.561Z,8.83
2023-03-30T06:51:37.335Z,8.86
2023-03-30T06:54:06.291Z,8.81
2023-03-30T06:56:33.804Z,8.92
2023-03-30T06:59:13.507Z,8.87
2023-03-30T07:02:00.386Z,9.09
2023-03-30T07:04:47.049Z,9.06
2023-03-30T07:07:35.204Z,9.08
2023-03-30T07:10:10.237Z,9.08
2023-03-30T07:12:43.624Z,9.09
2023-03-30T07:15:11.671Z,9.15
2023-03-30T07:17:40.574Z,9.11
2023-03-30T07:20:09.500Z,9.07
2023-03-30T07:22:52.300Z,9.29
2023-03-30T07:25:19.397Z,9.31
2023-03-30T07:27:47.885Z,9.44
2023-03-30T07:30:21.935Z,9.43
2023-03-30T07:32:58.385Z,9.28
2023-03-30T07:35:26.336Z,8.95
2023-03-30T07:38:02.821Z,9.32
2023-03-30T07:40:34.598Z,9.56
2023-03-30T07:43:03.256Z,9.67
2023-03-30T07:45:30.792Z,9.65
2023-03-30T07:47:58.382Z,9.63
2023-03-30T07:50:25.871Z,9.56
2023-03-30T07:52:56.027Z,9.53
2023-03-30T07:55:24.649Z,9.55
2023-03-30T07:57:58.637Z,9.54
2023-03-30T08:00:25.764Z,9.48
2023-03-30T08:03:13.086Z,9.46
2023-03-30T08:05:40.308Z,9.43
2023-03-30T08:08:15.744Z,9.37
2023-03-30T08:10:42.868Z,9.37
2023-03-30T08:13:10.029Z,9.42
2023-03-30T08:15:37.379Z,9.42
2023-03-30T08:18:08.345Z,9.40
2023-03-30T08:20:38.091Z,9.40
2023-03-30T08:23:06.338Z,9.49
2023-03-30T08:25:33.379Z,9.49
2023-03-30T08:28:00.916Z,9.43
2023-03-30T08:30:28.634Z,9.39
2023-03-30T08:32:55.719Z,9.34
2023-03-30T08:35:23.777Z,9.25
2023-03-30T08:37:50.940Z,9.15
2023-03-30T08:40:19.480Z,9.23
2023-03-30T08:43:11.742Z,9.27
2023-03-30T08:45:43.584Z,9.05
2023-03-30T08:48:20.181Z,9.16
2023-03-30T08:51:01.305Z,9.13
2023-03-30T08:53:31.821Z,9.04
2023-03-30T08:56:07.318Z,8.93
2023-03-30T08:58:40.493Z,9.00
2023-03-30T09:01:39.787Z,9.02
2023-03-30T09:04:28.101Z,8.93
2023-03-30T09:07:14.646Z,8.88
2023-03-30T09:09:49.336Z,8.81
2023-03-30T09:12:47.015Z,8.71
2023-03-30T09:15:18.689Z,8.57
2023-03-30T09:17:55.251Z,8.58
2023-03-30T09:20:27.924Z,8.53
2023-03-30T09:22:58.548Z,8.68
2023-03-30T09:25:35.300Z,8.58
2023-03-30T09:28:21.618Z,8.86
2023-03-30T09:31:01.696Z,8.95
2023-03-30T09:33:38.452Z,8.98
2023-03-30T09:36:29.075Z,9.03
2023-03-30T09:38:56.276Z,9.05
2023-03-30T09:41:33.774Z,9.12
2023-03-30T09:44:02.729Z,9.06
2023-03-30T09:46:29.999Z,8.97
2023-03-30T09:49:13.225Z,9.01
2023-03-30T09:51:54.823Z,8.79
2023-03-30T09:54:22.915Z,8.57
2023-03-30T09:56:54.493Z,8.58
2023-03-30T09:59:36.916Z,8.48
2023-03-30T10:02:12.951Z,8.42
2023-03-30T10:04:58.190Z,8.30
2023-03-30T10:07:37.880Z,8.15
2023-03-30T10:10:28.932Z,7.92
2023-03-30T10:13:05.137Z,7.87
2023-03-30T10:15:32.714Z,7.80
2023-03-30T10:18:14.184Z,7.73
2023-03-30T10:20:41.784Z,7.62
2023-03-30T10:23:17.157Z,7.67
2023-03-30T10:25:50.273Z,7.61
2023-03-30T10:28:21.911Z,7.55
2023-03-30T10:30:54.815Z,7.45
2023-03-30T10:33:22.860Z,7.44
2023-03-30T10:35:53.622Z,7.37
2023-03-30T10:38:21.547Z,7.36
2023-03-30T10:40:55.842Z,7.36
2023-03-30T10:43:28.141Z,7.35
2023-03-30T10:46:03.724Z,7.29
2023-03-30T10:48:52.135Z,7.37
2023-03-30T10:51:30.903Z,7.34
2023-03-30T10:54:28.797Z,7.45
2023-03-30T10:57:03.122Z,7.44
2023-03-30T10:59:38.954Z,7.46
2023-03-30T11:02:24.577Z,7.36
2023-03-30T11:05:14.634Z,7.35
2023-03-30T11:07:50.671Z,7.27
2023-03-30T11:10:32.242Z,7.06
2023-03-30T11:13:20.506Z,7.16
2023-03-30T11:16:02.455Z,7.12
2023-03-30T11:18:43.576Z,7.16
2023-03-30T11:21:32.151Z,7.11
2023-03-30T11:24:07.742Z,7.15
2023-03-30T11:26:40.950Z,7.04
2023-03-30T11:29:28.977Z,7.02
2023-03-30T11:32:34.365Z,7.14
2023-03-30T11:35:11.106Z,7.08
2023-03-30T11:37:41.560Z,7.04
2023-03-30T11:40:27.457Z,6.88
2023-03-30T11:42:55.596Z,6.69
2023-03-30T11:45:41.031Z,7.08
2023-03-30T11:48:46.245Z,7.07
2023-03-30T11:51:26.857Z,6.99
2023-03-30T11:54:04.957Z,6.85
2023-03-30T11:56:43.418Z,6.74
2023-03-30T11:59:36.770Z,6.71
2023-03-30T12:02:34.581Z,6.55
2023-03-30T12:05:11.356Z,6.68
2023-03-30T12:07:54.674Z,6.75
2023-03-30T12:10:37.348Z,6.67
2023-03-30T12:13:04.673Z,6.63
2023-03-30T12:15:54.002Z,6.54
2023-03-30T12:18:39.026Z,6.51
2023-03-30T12:21:27.541Z,6.50
2023-03-30T12:24:26.061Z,6.42
2023-03-30T12:27:04.450Z,6.35
2023-03-30T12:32:28.998Z,6.28
2023-03-30T12:34:57.667Z,6.22
2023-03-30T12:37:38.233Z,6.07
2023-03-30T12:40:22.480Z,6.12
2023-03-30T12:43:15.627Z,6.08
2023-03-30T12:46:03.009Z,5.94
2023-03-30T12:48:38.862Z,6.00
2023-03-30T12:51:44.057Z,5.94
2023-03-30T12:54:23.269Z,5.85
2023-03-30T12:57:08.325Z,5.77
2023-03-30T12:59:55.964Z,5.72
2023-03-30T13:02:41.708Z,5.75
2023-03-30T13:05:33.672Z,5.73
2023-03-30T13:08:07.048Z,5.53
2023-03-30T13:10:38.198Z,5.50
2023-03-30T13:13:06.168Z,5.55
2023-03-30T13:15:34.976Z,5.43
2023-03-30T13:18:23.157Z,5.20
2023-03-30T13:20:56.163Z,5.52
2023-03-30T13:23:23.122Z,5.48
2023-03-30T13:26:05.321Z,5.55
2023-03-30T13:28:35.776Z,5.55
2023-03-30T13:31:28.916Z,5.49
2023-03-30T13:34:23.733Z,5.56
2023-03-30T13:37:18.586Z,5.44
2023-03-30T13:40:21.830Z,5.41
2023-03-30T13:43:20.058Z,5.31
2023-03-30T13:46:05.823Z,5.32
2023-03-30T13:49:01.643Z,5.28
2023-03-30T13:51:30.792Z,5.24
2023-03-30T13:54:01.310Z,5.25
2023-03-30T13:56:32.724Z,5.26
2023-03-30T13:59:12.654Z,5.27
2023-03-30T14:01:40.995Z,5.16
2023-03-30T14:04:13.801Z,5.12
2023-03-30T14:06:47.493Z,5.09
2023-03-30T14:09:26.401Z,5.21
2023-03-30T14:11:59.532Z,5.22
2023-03-30T14:14:34.712Z,5.14
2023-03-30T14:17:11.782Z,4.79
2023-03-30T14:19:53.124Z,5.15
2023-03-30T14:22:27.743Z,5.22
2023-03-30T14:25:02.804Z,5.27
2023-03-30T14:27:41.141Z,5.29
2023-03-30T14:30:29.112Z,5.30
2023-03-30T14:33:14.480Z,5.21
2023-03-30T14:35:44.953Z,5.00
2023-03-30T14:38:18.018Z,5.09
2023-03-30T14:40:45.755Z,4.93
2023-03-30T14:43:22.489Z,4.99
2023-03-30T14:45:49.954Z,4.88
2023-03-30T14:48:28.493Z,4.74
2023-03-30T14:50:55.777Z,4.72
2023-03-30T14:53:27.876Z,4.67
2023-03-30T14:55:58.198Z,4.66
2023-03-30T14:58:28.182Z,4.62
2023-03-30T15:01:01.386Z,4.58
2023-03-30T15:03:34.497Z,4.21
2023-03-30T15:06:04.909Z,4.17
2023-03-30T15:08:34.677Z,4.48
2023-03-30T15:11:08.209Z,4.43
2023-03-30T15:13:41.787Z,4.44
2023-03-30T15:16:12.555Z,4.37
2023-03-30T15:18:39.704Z,4.39
2023-03-30T15:21:09.329Z,4.34
2023-03-30T15:23:41.139Z,4.37
2023-03-30T15:26:08.974Z,4.41
2023-03-30T15:28:44.501Z,4.43
2023-03-30T15:31:14.674Z,4.30
2023-03-30T15:33:48.989Z,4.37
2023-03-30T15:36:20.568Z,4.36
2023-03-30T15:38:58.849Z,3.99
2023-03-30T15:41:50.725Z,4.35
2023-03-30T15:44:20.138Z,4.01
2023-03-30T15:46:50.355Z,4.24
2023-03-30T15:49:24.874Z,4.27
2023-03-30T15:51:55.887Z,4.32
2023-03-30T15:54:41.330Z,4.28
2023-03-30T15:57:13.248Z,4.29
2023-03-30T15:59:56.385Z,4.20
2023-03-30T16:02:36.621Z,4.14
2023-03-30T16:05:06.882Z,4.27
2023-03-30T16:07:35.407Z,4.07
2023-03-30T16:10:05.724Z,3.82
2023-03-30T16:12:34.340Z,4.16
2023-03-30T16:15:01.572Z,4.16
2023-03-30T16:17:30.049Z,3.89
2023-03-30T16:19:57.043Z,4.16
2023-03-30T16:22:24.047Z,4.14
2023-03-30T16:24:51.238Z,4.13
2023-03-30T16:27:18.208Z,4.07
2023-03-30T16:29:45.217Z,4.01
2023-03-30T16:32:12.344Z,4.00
2023-03-30T16:34:41.044Z,4.00
2023-03-30T16:37:09.761Z,3.91
2023-03-30T16:39:36.753Z,3.97
2023-03-30T16:42:03.832Z,3.82
2023-03-30T16:44:31.037Z,3.92
2023-03-30T16:46:57.994Z,3.88
2023-03-30T16:49:26.190Z,3.88
2023-03-30T16:51:57.359Z,3.84
2023-03-30T16:54:32.116Z,3.89
2023-03-30T16:57:01.360Z,3.83
2023-03-30T16:59:30.788Z,3.82
2023-03-30T17:01:58.801Z,3.89
2023-03-30T17:04:26.127Z,3.86
2023-03-30T17:06:55.009Z,3.85
2023-03-30T17:09:22.501Z,3.88
2023-03-30T17:11:50.467Z,3.82
2023-03-30T17:14:17.867Z,3.80
2023-03-30T17:16:44.900Z,3.92
2023-03-30T17:19:13.941Z,3.92
2023-03-30T17:21:42.935Z,3.24
2023-03-30T17:24:11.322Z,3.87
2023-03-30T17:26:39.465Z,3.54
2023-03-30T17:29:06.439Z,3.83
2023-03-30T17:31:33.748Z,3.80
2023-03-30T17:34:00.971Z,3.80
2023-03-30T17:36:29.135Z,3.77
2023-03-30T17:38:56.773Z,3.83
2023-03-30T17:41:24.124Z,3.81
2023-03-30T17:43:51.684Z,3.75
2023-03-30T17:46:20.407Z,3.72
2023-03-30T17:48:47.901Z,3.75
2023-03-30T17:51:14.921Z,3.79
2023-03-30T17:53:41.913Z,3.50
2023-03-30T17:56:12.362Z,3.73
2023-03-30T17:58:39.348Z,3.74
2023-03-30T18:01:08.911Z,3.67
2023-03-30T18:03:38.889Z,3.67
2023-03-30T18:06:06.530Z,3.58
2023-03-30T18:08:33.580Z,3.67
2023-03-30T18:11:01.505Z,3.64
2023-03-30T18:13:30.623Z,3.29
2023-03-30T18:15:59.763Z,3.58
2023-03-30T18:18:29.642Z,3.42
2023-03-30T18:21:05.528Z,3.52
2023-03-30T18:23:37.450Z,3.50
2023-03-30T18:26:10.232Z,3.51
2023-03-30T18:28:40.620Z,3.45
2023-03-30T18:31:08.892Z,3.22
2023-03-30T18:33:36.077Z,3.46
2023-03-30T18:36:06.224Z,3.28
2023-03-30T18:38:33.628Z,3.37
2023-03-30T18:41:01.539Z,3.43
2023-03-30T18:43:28.779Z,3.45
2023-03-30T18:46:01.437Z,3.38
2023-03-30T18:48:30.169Z,3.36
2023-03-30T18:50:57.663Z,3.38
2023-03-30T18:53:27.639Z,3.32
2023-03-30T18:56:01.059Z,3.44
2023-03-30T18:58:41.821Z,3.47
2023-03-30T19:01:09.733Z,3.43
2023-03-30T19:03:36.776Z,3.34
2023-03-30T19:06:04.070Z,3.34
2023-03-30T19:08:31.420Z,3.18
2023-03-30T19:10:58.433Z,3.28
2023-03-30T19:13:26.877Z,2.78
2023-03-30T19:15:54.511Z,3.25
2023-03-30T19:18:22.000Z,3.24
2023-03-30T19:20:51.004Z,3.18
2023-03-30T19:23:19.336Z,3.14
2023-03-30T19:25:46.501Z,3.15
2023-03-30T19:28:15.081Z,3.21
2023-03-30T19:30:42.601Z,3.24
2023-03-30T19:33:12.653Z,3.12
2023-03-30T19:35:44.493Z,3.26
2023-03-30T19:38:12.605Z,3.20
2023-03-30T19:40:40.517Z,3.09
2023-03-30T19:43:07.818Z,3.05
2023-03-30T19:45:35.114Z,3.09
2023-03-30T19:48:02.211Z,3.11
2023-03-30T19:50:30.319Z,3.13
2023-03-30T19:52:58.809Z,3.07
2023-03-30T19:55:26.406Z,3.10
2023-03-30T19:57:53.416Z,3.13
2023-03-30T20:00:21.359Z,3.11
2023-03-30T20:02:51.070Z,3.15
2023-03-30T20:05:19.620Z,3.17
2023-03-30T20:07:47.472Z,3.03
2023-03-30T20:10:25.364Z,3.18
2023-03-30T20:12:53.026Z,3.18
2023-03-30T20:15:21.675Z,3.14
2023-03-30T20:17:48.728Z,3.09
2023-03-30T20:20:23.573Z,3.08
2023-03-30T20:22:53.573Z,3.07
2023-03-30T20:25:21.920Z,2.96
2023-03-30T20:27:49.430Z,2.87
2023-03-30T20:30:17.105Z,3.03
2023-03-30T20:32:50.435Z,2.97
2023-03-30T20:35:25.735Z,3.03
2023-03-30T20:37:52.959Z,2.99
2023-03-30T20:40:21.156Z,3.00
2023-03-30T20:42:48.184Z,2.97
2023-03-30T20:45:17.749Z,2.84
2023-03-30T20:47:50.248Z,2.59
2023-03-30T20:50:17.359Z,2.96
2023-03-30T20:52:44.305Z,2.85
2023-03-30T20:55:11.497Z,2.97
2023-03-30T20:57:39.692Z,2.89
2023-03-30T21:00:07.570Z,2.89
2023-03-30T21:02:34.718Z,2.76
2023-03-30T21:05:02.234Z,2.78
2023-03-30T21:07:30.362Z,2.78
2023-03-30T21:09:57.810Z,2.69
2023-03-30T21:12:24.828Z,2.84
2023-03-30T21:14:51.781Z,2.79
2023-03-30T21:17:18.777Z,2.86
2023-03-30T21:19:45.738Z,2.83
2023-03-30T21:22:12.766Z,2.64
2023-03-30T21:24:39.752Z,2.86
2023-03-30T21:27:06.786Z,2.83
2023-03-30T21:29:33.779Z,2.76
2023-03-30T21:32:01.490Z,2.75
2023-03-30T21:34:28.505Z,2.62
2023-03-30T21:36:55.680Z,2.52
2023-03-30T21:39:23.920Z,2.59
2023-03-30T21:41:50.881Z,2.70
2023-03-30T21:44:17.865Z,2.61
2023-03-30T21:46:44.842Z,2.55
2023-03-30T21:49:12.660Z,2.61
2023-03-30T21:51:39.630Z,2.53
2023-03-30T21:54:07.822Z,2.61
2023-03-30T21:56:34.813Z,2.55
2023-03-30T21:59:01.921Z,2.49
2023-03-30T22:01:29.078Z,2.57
2023-03-30T22:03:56.675Z,2.56
2023-03-30T22:06:23.997Z,2.53
2023-03-30T22:08:51.312Z,2.57
2023-03-30T22:11:21.474Z,2.44
2023-03-30T22:13:49.779Z,2.56
2023-03-30T22:16:24.893Z,2.53
2023-03-30T22:18:52.258Z,2.54
2023-03-30T22:21:23.696Z,2.35
2023-03-30T22:23:51.266Z,2.50
2023-03-30T22:26:18.348Z,2.49
2023-03-30T22:28:45.486Z,2.50
2023-03-30T22:31:14.364Z,2.42
2023-03-30T22:33:41.695Z,2.50
2023-03-30T22:36:21.007Z,2.52
2023-03-30T22:38:49.186Z,2.37
2023-03-30T22:41:16.255Z,2.43
2023-03-30T22:43:43.228Z,2.38
2023-03-30T22:46:12.070Z,2.46
2023-03-30T22:48:41.729Z,2.44
2023-03-30T22:51:08.952Z,2.40
2023-03-30T22:53:36.144Z,2.43
2023-03-30T22:56:03.799Z,2.23
2023-03-30T22:58:30.923Z,2.41
2023-03-30T23:01:02.307Z,2.45
2023-03-30T23:03:29.601Z,2.35
2023-03-30T23:06:01.161Z,2.32
2023-03-30T23:08:31.528Z,2.39
2023-03-30T23:11:05.121Z,2.33
2023-03-30T23:13:37.779Z,2.35
2023-03-30T23:16:06.996Z,2.31
2023-03-30T23:18:34.948Z,2.35
2023-03-30T23:21:06.716Z,2.31
2023-03-30T23:23:35.991Z,2.30
2023-03-30T23:26:08.774Z,2.35
2023-03-30T23:28:41.994Z,2.33
2023-03-30T23:31:14.519Z,2.30
2023-03-30T23:33:42.343Z,2.26
2023-03-30T23:36:13.610Z,2.29
2023-03-30T23:38:41.588Z,2.34
2023-03-30T23:41:09.422Z,2.31
2023-03-30T23:43:36.510Z,2.32
2023-03-30T23:46:04.295Z,1.93
2023-03-30T23:48:31.974Z,2.30
2023-03-30T23:50:59.215Z,2.30
2023-03-30T23:53:28.819Z,2.23
2023-03-30T23:55:56.023Z,2.24
2023-03-30T23:58:24.460Z,2.20
